createdAt,value
2022-09-10T03:15:27.996Z,13.25
2022-09-10T03:17:57.327Z,12.32
2022-09-10T03:20:27.416Z,13.48
2022-09-10T03:22:55.745Z,12.90
2022-09-10T03:25:23.999Z,13.05
2022-09-10T03:27:58.077Z,15.27
2022-09-10T03:30:29.418Z,14.48
2022-09-10T03:33:01.185Z,13.68
2022-09-10T03:35:29.557Z,12.73
2022-09-10T03:37:57.784Z,13.38
2022-09-10T03:40:26.258Z,15.70
2022-09-10T03:42:54.554Z,13.88
2022-09-10T03:45:23.144Z,13.40
2022-09-10T03:47:52.753Z,16.73
2022-09-10T03:50:21.198Z,10.70
2022-09-10T03:52:50.220Z,11.13
2022-09-10T03:55:19.127Z,11.10
2022-09-10T03:57:50.376Z,10.75
2022-09-10T04:00:18.990Z,13.55
2022-09-10T04:02:51.109Z,11.88
2022-09-10T04:05:21.041Z,12.40
2022-09-10T04:07:50.362Z,10.80
2022-09-10T04:10:21.379Z,10.02
2022-09-10T04:12:50.191Z,11.50
2022-09-10T04:15:18.718Z,10.85
2022-09-10T04:17:51.421Z,9.65
2022-09-10T04:20:23.839Z,8.85
2022-09-10T04:22:56.790Z,12.77
2022-09-10T04:25:27.125Z,9.02
2022-09-10T04:27:55.363Z,10.32
2022-09-10T04:30:24.112Z,9.75
2022-09-10T04:32:52.772Z,9.50
2022-09-10T04:35:22.429Z,8.35
2022-09-10T04:37:50.657Z,9.23
2022-09-10T04:40:19.258Z,10.73
2022-09-10T04:42:51.207Z,10.85
2022-09-10T04:45:20.182Z,9.88
2022-09-10T04:47:49.703Z,11.27
2022-09-10T04:50:18.276Z,10.73
2022-09-10T04:53:07.952Z,9.32
2022-09-10T04:55:40.121Z,11.40
2022-09-10T04:58:08.980Z,11.55
2022-09-10T05:00:39.406Z,9.60
2022-09-10T05:03:08.587Z,9.85
2022-09-10T05:05:38.543Z,10.75
2022-09-10T05:08:08.280Z,12.13
2022-09-10T05:10:38.374Z,10.90
2022-09-10T05:13:08.309Z,8.95
2022-09-10T05:15:40.678Z,10.90
2022-09-10T05:18:09.925Z,11.73
2022-09-10T05:20:40.109Z,9.25
2022-09-10T05:23:09.835Z,9.18
2022-09-10T05:25:38.385Z,9.35
2022-09-10T05:28:07.974Z,11.43
2022-09-10T05:30:39.045Z,9.68
2022-09-10T05:33:07.802Z,11.95
2022-09-10T05:35:36.411Z,10.75
2022-09-10T05:38:06.861Z,10.70
2022-09-10T05:40:43.645Z,10.98
2022-09-10T05:43:13.240Z,10.52
2022-09-10T05:45:43.840Z,10.98
2022-09-10T05:48:14.900Z,11.23
2022-09-10T05:50:45.705Z,11.25
2022-09-10T05:53:14.728Z,11.55
2022-09-10T05:55:46.190Z,12.68
2022-09-10T05:58:14.979Z,9.93
2022-09-10T06:00:44.406Z,10.70
2022-09-10T06:03:13.139Z,9.68
2022-09-10T06:05:50.435Z,11.38
2022-09-10T06:08:22.801Z,14.05
2022-09-10T06:11:11.985Z,14.52
2022-09-10T06:13:49.405Z,10.93
2022-09-10T06:16:18.623Z,15.45
2022-09-10T06:18:47.209Z,15.60
2022-09-10T06:21:19.810Z,11.10
2022-09-10T06:23:55.052Z,14.48
2022-09-10T06:26:26.293Z,11.50
2022-09-10T06:28:58.009Z,13.93
2022-09-10T06:31:27.242Z,11.38
2022-09-10T06:33:59.785Z,11.32
2022-09-10T06:36:30.793Z,13.40
2022-09-10T06:39:00.058Z,10.88
2022-09-10T06:41:30.580Z,14.82
2022-09-10T06:44:06.907Z,12.93
2022-09-10T06:47:50.882Z,13.23
2022-09-10T06:49:36.763Z,13.82
2022-09-10T06:52:06.901Z,11.35
2022-09-10T06:54:36.062Z,11.88
2022-09-10T06:57:21.108Z,13.63
2022-09-10T06:59:49.411Z,13.98
2022-09-10T07:02:17.784Z,10.00
2022-09-10T07:04:46.975Z,15.02
2022-09-10T07:07:16.759Z,11.38
2022-09-10T07:09:45.874Z,10.57
2022-09-10T07:12:19.549Z,11.77
2022-09-10T07:14:49.575Z,14.90
2022-09-10T07:17:21.087Z,13.20
2022-09-10T07:19:51.151Z,10.75
2022-09-10T07:22:26.312Z,10.82
2022-09-10T07:24:55.450Z,10.07
2022-09-10T07:27:30.586Z,10.23
2022-09-10T07:30:03.878Z,10.65
2022-09-10T07:32:38.980Z,10.50
2022-09-10T07:35:14.085Z,8.45
2022-09-10T07:37:42.784Z,11.48
2022-09-10T07:40:14.907Z,10.35
2022-09-10T07:42:44.636Z,9.05
2022-09-10T07:45:15.924Z,10.15
2022-09-10T07:47:45.631Z,10.15
2022-09-10T07:50:15.139Z,9.50
2022-09-10T07:52:44.894Z,10.02
2022-09-10T07:55:16.047Z,11.05
2022-09-10T07:57:44.638Z,11.40
2022-09-10T08:00:18.546Z,10.70
2022-09-10T08:03:00.093Z,9.85
2022-09-10T08:05:34.804Z,11.45
2022-09-10T08:08:03.954Z,8.07
2022-09-10T08:10:40.074Z,8.60
2022-09-10T08:13:17.316Z,11.27
2022-09-10T08:15:50.488Z,8.93
2022-09-10T08:18:20.956Z,11.95
2022-09-10T08:20:56.651Z,9.82
2022-09-10T08:23:25.905Z,8.52
2022-09-10T08:25:54.556Z,10.57
2022-09-10T08:28:25.472Z,9.88
2022-09-10T08:31:01.179Z,7.78
2022-09-10T08:33:31.992Z,8.88
2022-09-10T08:36:00.992Z,8.90
2022-09-10T08:38:32.680Z,10.93
2022-09-10T08:41:03.586Z,10.82
2022-09-10T08:43:38.435Z,8.50
2022-09-10T08:46:17.319Z,9.27
2022-09-10T08:48:49.725Z,10.40
2022-09-10T08:51:27.695Z,8.95
2022-09-10T08:54:00.592Z,11.60
2022-09-10T08:56:31.376Z,8.63
2022-09-10T08:59:04.041Z,9.35
2022-09-10T09:01:40.650Z,8.82
2022-09-10T09:04:17.837Z,8.65
2022-09-10T09:06:52.697Z,7.63
2022-09-10T09:09:22.094Z,7.28
2022-09-10T09:11:56.422Z,10.82
2022-09-10T09:14:41.328Z,9.13
2022-09-10T09:17:28.712Z,10.80
2022-09-10T09:20:11.385Z,9.18
2022-09-10T09:22:51.984Z,7.45
2022-09-10T09:25:28.925Z,7.82
2022-09-10T09:27:58.636Z,9.85
2022-09-10T09:30:37.290Z,9.32
2022-09-10T09:33:16.462Z,9.13
2022-09-10T09:35:50.372Z,7.43
2022-09-10T09:38:23.862Z,10.00
2022-09-10T09:40:57.755Z,7.78
2022-09-10T09:43:38.830Z,9.65
2022-09-10T09:46:15.134Z,8.90
2022-09-10T09:48:47.950Z,8.43
2022-09-10T09:51:21.091Z,9.05
2022-09-10T09:54:01.017Z,7.80
2022-09-10T09:56:42.917Z,10.10
2022-09-10T09:59:24.728Z,9.35
2022-09-10T10:01:53.214Z,7.78
2022-09-10T10:04:26.980Z,10.23
2022-09-10T10:06:57.594Z,10.82
2022-09-10T10:09:29.402Z,10.43
2022-09-10T10:11:59.468Z,12.38
2022-09-10T10:14:41.554Z,10.13
2022-09-10T10:17:30.434Z,11.55
2022-09-10T10:20:03.100Z,8.18
2022-09-10T10:22:32.102Z,7.78
2022-09-10T10:25:01.375Z,8.65
2022-09-10T10:27:33.389Z,9.18
2022-09-10T10:30:06.171Z,9.48
2022-09-10T10:32:42.996Z,9.40
2022-09-10T10:35:29.545Z,8.07
2022-09-10T10:38:31.277Z,8.98
2022-09-10T10:41:22.117Z,8.77
2022-09-10T10:43:58.945Z,8.43
2022-09-10T10:46:35.620Z,8.05
2022-09-10T10:49:16.737Z,9.75
2022-09-10T10:51:53.310Z,7.55
2022-09-10T10:54:38.160Z,7.78
2022-09-10T10:57:15.759Z,8.20
2022-09-10T10:59:55.680Z,7.05
2022-09-10T11:02:36.255Z,8.43
2022-09-10T11:05:19.317Z,8.00
2022-09-10T11:07:50.184Z,8.15
2022-09-10T11:10:24.282Z,9.85
2022-09-10T11:12:59.038Z,9.00
2022-09-10T11:15:31.587Z,10.32
2022-09-10T11:18:04.135Z,8.75
2022-09-10T11:20:36.131Z,8.75
2022-09-10T11:23:18.440Z,11.45
2022-09-10T11:25:56.014Z,9.63
2022-09-10T11:28:30.029Z,9.45
2022-09-10T11:31:03.718Z,9.45
2022-09-10T11:33:37.334Z,8.27
2022-09-10T11:36:12.132Z,10.65
2022-09-10T11:38:48.920Z,8.82
2022-09-10T11:41:22.198Z,9.23
2022-09-10T11:43:55.599Z,9.07
2022-09-10T11:46:28.631Z,9.02
2022-09-10T11:49:03.682Z,13.20
2022-09-10T11:51:34.862Z,9.55
2022-09-10T11:54:07.146Z,8.60
2022-09-10T11:56:47.144Z,8.35
2022-09-10T11:59:30.022Z,7.72
2022-09-10T12:02:26.281Z,8.88
2022-09-10T12:05:01.534Z,9.80
2022-09-10T12:07:44.528Z,9.38
2022-09-10T12:10:23.247Z,9.20
2022-09-10T12:12:51.648Z,8.73
2022-09-10T12:15:22.025Z,8.25
2022-09-10T12:17:55.915Z,8.45
2022-09-10T12:20:29.576Z,8.55
2022-09-10T12:22:58.630Z,7.57
2022-09-10T12:25:34.229Z,9.45
2022-09-10T12:28:07.749Z,10.77
2022-09-10T12:31:03.879Z,10.32
2022-09-10T12:34:07.881Z,8.88
2022-09-10T12:37:08.947Z,9.18
2022-09-10T12:39:37.055Z,8.95
2022-09-10T12:42:31.896Z,11.18
2022-09-10T12:45:00.716Z,9.68
2022-09-10T12:47:50.481Z,10.60
2022-09-10T12:50:33.526Z,8.18
2022-09-10T12:53:34.442Z,9.27
2022-09-10T12:56:07.648Z,8.40
2022-09-10T12:58:54.406Z,8.15
2022-09-10T13:01:39.589Z,8.75
2022-09-10T13:04:24.416Z,9.27
2022-09-10T13:06:56.258Z,8.57
2022-09-10T13:09:28.810Z,8.38
2022-09-10T13:11:59.991Z,7.10
2022-09-10T13:14:32.843Z,8.77
2022-09-10T13:17:01.017Z,8.20
2022-09-10T13:19:50.106Z,9.50
2022-09-10T13:22:57.396Z,8.82
2022-09-10T13:25:41.599Z,6.65
2022-09-10T13:28:47.529Z,8.15
2022-09-10T13:31:26.038Z,10.25
2022-09-10T13:34:32.126Z,9.88
2022-09-10T13:37:22.868Z,8.45
2022-09-10T13:40:19.543Z,13.18
2022-09-10T13:43:12.993Z,10.35
2022-09-10T13:45:47.878Z,10.55
2022-09-10T13:48:22.149Z,12.20
2022-09-10T13:50:59.208Z,14.65
2022-09-10T13:53:30.087Z,11.93
2022-09-10T13:55:59.835Z,12.73
2022-09-10T13:58:33.050Z,13.40
2022-09-10T14:01:03.482Z,13.90
2022-09-10T14:03:35.082Z,12.50
2022-09-10T14:06:05.246Z,14.13
2022-09-10T14:08:38.520Z,10.95
2022-09-10T14:11:14.389Z,12.10
2022-09-10T14:13:47.184Z,9.68
2022-09-10T14:16:20.926Z,11.18
2022-09-10T14:18:53.910Z,8.98
2022-09-10T14:21:27.045Z,8.45
2022-09-10T14:23:56.933Z,11.95
2022-09-10T14:26:27.441Z,8.82
2022-09-10T14:28:58.977Z,10.13
2022-09-10T14:31:33.544Z,8.63
2022-09-10T14:34:25.360Z,9.82
2022-09-10T14:36:53.482Z,12.18
2022-09-10T14:39:23.301Z,12.27
2022-09-10T14:42:10.374Z,14.27
2022-09-10T14:44:42.724Z,12.68
2022-09-10T14:47:16.362Z,14.18
2022-09-10T14:49:47.258Z,14.52
2022-09-10T14:52:15.792Z,18.77
2022-09-10T14:54:43.991Z,12.18
2022-09-10T14:57:15.295Z,13.80
2022-09-10T14:59:46.299Z,14.68
2022-09-10T15:02:17.927Z,13.40
2022-09-10T15:04:47.391Z,15.02
2022-09-10T15:07:15.778Z,17.77
2022-09-10T15:09:43.939Z,14.93
2022-09-10T15:12:19.654Z,14.02
2022-09-10T15:14:47.831Z,15.57
2022-09-10T15:17:17.736Z,13.13
2022-09-10T15:19:48.352Z,14.55
2022-09-10T15:22:23.789Z,13.60
2022-09-10T15:25:08.992Z,14.32
2022-09-10T15:27:38.145Z,12.75
2022-09-10T15:30:11.533Z,14.73
2022-09-10T15:32:40.502Z,14.80
2022-09-10T15:35:10.798Z,16.33
2022-09-10T15:37:39.067Z,15.15
2022-09-10T15:40:09.395Z,16.40
2022-09-10T15:42:37.636Z,13.88
2022-09-10T15:45:06.185Z,13.23
2022-09-10T15:47:34.354Z,14.52
2022-09-10T15:50:02.457Z,11.80
2022-09-10T15:52:31.823Z,12.55
2022-09-10T15:55:00.046Z,13.95
2022-09-10T15:57:28.126Z,12.52
2022-09-10T15:59:56.207Z,13.45
2022-09-10T16:02:25.246Z,11.73
2022-09-10T16:04:53.954Z,13.63
2022-09-10T16:07:22.057Z,12.43
2022-09-10T16:09:51.461Z,15.07
2022-09-10T16:12:19.524Z,16.15
2022-09-10T16:14:47.728Z,15.30
2022-09-10T16:17:17.439Z,14.60
2022-09-10T16:19:45.527Z,13.57
2022-09-10T16:22:16.463Z,14.23
2022-09-10T16:24:48.103Z,14.50
2022-09-10T16:27:17.656Z,14.45
2022-09-10T16:29:48.521Z,15.18
2022-09-10T16:32:16.635Z,19.85
2022-09-10T16:34:44.757Z,18.90
2022-09-10T16:37:13.589Z,15.00
2022-09-10T16:39:41.789Z,17.58
2022-09-10T16:42:09.918Z,18.88
2022-09-10T16:44:41.266Z,15.48
2022-09-10T16:47:09.366Z,14.73
2022-09-10T16:49:38.401Z,17.80
2022-09-10T16:52:06.790Z,15.52
2022-09-10T16:54:34.928Z,17.08
2022-09-10T16:57:03.061Z,15.95
2022-09-10T16:59:31.190Z,17.55
2022-09-10T17:02:00.761Z,17.38
2022-09-10T17:04:29.471Z,18.17
2022-09-10T17:06:58.563Z,18.02
2022-09-10T17:09:27.021Z,18.35
2022-09-10T17:11:55.187Z,20.52
2022-09-10T17:14:23.564Z,16.55
2022-09-10T17:16:53.797Z,16.20
2022-09-10T17:19:42.008Z,14.18
2022-09-10T17:22:17.477Z,12.70
2022-09-10T17:24:49.796Z,14.60
2022-09-10T17:27:24.785Z,15.18
2022-09-10T17:29:57.500Z,13.40
2022-09-10T17:32:26.568Z,11.98
2022-09-10T17:34:56.248Z,12.68
2022-09-10T17:37:24.577Z,11.68
2022-09-10T17:39:53.768Z,13.00
2022-09-10T17:42:21.952Z,13.13
2022-09-10T17:44:50.275Z,13.05
2022-09-10T17:47:18.443Z,10.43
2022-09-10T17:49:46.551Z,11.00
2022-09-10T17:52:16.105Z,12.15
2022-09-10T17:54:44.347Z,10.38
2022-09-10T17:57:12.443Z,11.15
2022-09-10T17:59:40.790Z,10.07
2022-09-10T18:02:13.275Z,10.23
2022-09-10T18:04:41.610Z,10.15
2022-09-10T18:07:11.865Z,9.07
2022-09-10T18:09:41.575Z,9.02
2022-09-10T18:12:16.858Z,7.80
2022-09-10T18:14:46.161Z,8.50
2022-09-10T18:17:14.801Z,9.40
2022-09-10T18:19:43.879Z,7.82
2022-09-10T18:22:12.652Z,8.77
2022-09-10T18:24:42.916Z,8.75
2022-09-10T18:27:13.444Z,7.20
2022-09-10T18:29:43.096Z,6.97
2022-09-10T18:32:11.415Z,7.32
2022-09-10T18:34:41.816Z,7.60
2022-09-10T18:37:10.174Z,7.32
2022-09-10T18:39:38.489Z,8.20
2022-09-10T18:42:09.191Z,9.40
2022-09-10T18:44:37.661Z,7.13
2022-09-10T18:47:17.801Z,5.72
2022-09-10T18:49:50.966Z,6.07
2022-09-10T18:52:19.156Z,6.00
2022-09-10T18:54:47.454Z,6.13
2022-09-10T18:57:17.235Z,7.70
2022-09-10T18:59:45.502Z,5.63
2022-09-10T19:02:13.826Z,7.35
2022-09-10T19:05:07.475Z,5.32
2022-09-10T19:07:30.376Z,8.00
2022-09-10T19:10:00.259Z,24.20
2022-09-10T19:12:29.733Z,27.98
2022-09-10T19:14:57.912Z,83.07
2022-09-10T19:17:26.055Z,159.00
2022-09-10T19:19:54.170Z,98.95
2022-09-10T19:22:22.287Z,81.97
2022-09-10T19:24:55.041Z,25.63
2022-09-10T19:27:24.413Z,13.35
2022-09-10T19:29:54.235Z,32.33
2022-09-10T19:32:22.615Z,27.70
2022-09-10T19:34:51.110Z,33.80
2022-09-10T19:37:19.636Z,39.90
2022-09-10T19:39:47.868Z,19.88
2022-09-10T19:42:16.479Z,26.80
2022-09-10T19:44:44.590Z,46.97
2022-09-10T19:47:14.144Z,34.25
2022-09-10T19:49:42.229Z,30.08
2022-09-10T19:52:11.152Z,29.55
2022-09-10T19:54:39.875Z,60.33
2022-09-10T19:57:08.035Z,38.03
2022-09-10T19:59:36.210Z,11.48
2022-09-10T20:02:04.497Z,57.05
2022-09-10T20:04:34.227Z,18.38
2022-09-10T20:07:02.443Z,47.28
2022-09-10T20:09:30.563Z,42.53
2022-09-10T20:11:59.332Z,40.60
2022-09-10T20:14:27.942Z,24.85
2022-09-10T20:16:56.956Z,23.25
2022-09-10T20:19:25.105Z,78.18
2022-09-10T20:21:54.614Z,91.07
2022-09-10T20:24:23.941Z,98.07
2022-09-10T20:26:52.344Z,54.60
2022-09-10T20:29:21.405Z,62.78
2022-09-10T20:31:49.899Z,37.35
2022-09-10T20:34:20.624Z,63.22
2022-09-10T20:36:51.206Z,51.10
2022-09-10T20:39:22.378Z,66.22
2022-09-10T20:41:50.511Z,38.03
2022-09-10T20:44:20.084Z,46.75
2022-09-10T20:46:48.208Z,26.48
2022-09-10T20:49:17.159Z,14.77
2022-09-10T20:51:45.907Z,21.30
2022-09-10T20:54:16.562Z,86.07
2022-09-10T20:56:46.388Z,38.25
2022-09-10T20:59:15.740Z,19.73
2022-09-10T21:01:46.461Z,21.38
2022-09-10T21:04:15.196Z,21.38
2022-09-10T21:06:43.794Z,11.55
2022-09-10T21:09:12.422Z,12.80
2022-09-10T21:11:40.613Z,36.13
2022-09-10T21:14:11.125Z,27.08
2022-09-10T21:16:41.384Z,27.88
2022-09-10T21:19:11.987Z,21.10
2022-09-10T21:21:40.925Z,12.02
2022-09-10T21:24:11.511Z,11.38
2022-09-10T21:26:41.932Z,12.57
2022-09-10T21:29:13.993Z,13.93
2022-09-10T21:31:42.669Z,12.50
2022-09-10T21:34:11.274Z,13.25
2022-09-10T21:36:41.148Z,13.05
2022-09-10T21:39:14.068Z,15.35
2022-09-10T21:41:44.522Z,18.35
2022-09-10T21:44:15.635Z,12.90
2022-09-10T21:46:44.785Z,15.35
2022-09-10T21:49:13.327Z,11.80
2022-09-10T21:51:41.817Z,11.15
2022-09-10T21:54:14.712Z,10.13
2022-09-10T21:56:42.957Z,11.38
2022-09-10T21:59:11.897Z,10.82
2022-09-10T22:01:43.341Z,13.13
2022-09-10T22:04:12.017Z,10.82
2022-09-10T22:06:40.813Z,11.43
2022-09-10T22:09:11.295Z,13.23
2022-09-10T22:11:46.116Z,13.48
2022-09-10T22:14:21.032Z,12.60
2022-09-10T22:16:53.908Z,10.10
2022-09-10T22:19:27.210Z,15.15
2022-09-10T22:21:56.957Z,13.85
2022-09-10T22:24:27.561Z,13.75
2022-09-10T22:26:59.535Z,12.98
2022-09-10T22:29:30.500Z,17.48
2022-09-10T22:32:03.413Z,15.93
2022-09-10T22:34:32.070Z,14.07
2022-09-10T22:37:03.320Z,13.70
2022-09-10T22:39:37.258Z,16.25
2022-09-10T22:42:08.648Z,13.02
2022-09-10T22:44:39.330Z,13.75
2022-09-10T22:47:11.047Z,15.48
2022-09-10T22:49:42.087Z,12.98
2022-09-10T22:52:13.422Z,16.38
2022-09-10T22:54:41.827Z,16.75
2022-09-10T22:57:10.372Z,17.23
2022-09-10T22:59:45.344Z,14.88
2022-09-10T23:02:18.159Z,20.75
2022-09-10T23:04:51.110Z,19.23
2022-09-10T23:07:19.681Z,19.15
2022-09-10T23:09:50.357Z,19.80
